sensor_id;sensor_type;location;lat;lon;timestamp;P1;durP1;ratioP1;P2;durP2;ratioP2
42414;SDS011;28058;46.344;17.786;2023-02-28T00:00:26;43.17;;;25.98;;
42414;SDS011;28058;46.344;17.786;2023-02-28T00:02:53;41.42;;;24.15;;
42414;SDS011;28058;46.344;17.786;2023-02-28T00:05:22;38.83;;;24.38;;
42414;SDS011;28058;46.344;17.786;2023-02-28T00:07:50;44.65;;;25.13;;
42414;SDS011;28058;46.344;17.786;2023-02-28T00:10:21;45.50;;;28.58;;
42414;SDS011;28058;46.344;17.786;2023-02-28T00:12:50;46.72;;;25.42;;
42414;SDS011;28058;46.344;17.786;2023-02-28T00:15:18;43.88;;;25.63;;
42414;SDS011;28058;46.344;17.786;2023-02-28T00:17:45;43.60;;;25.35;;
42414;SDS011;28058;46.344;17.786;2023-02-28T00:20:12;43.45;;;25.65;;
42414;SDS011;28058;46.344;17.786;2023-02-28T00:22:40;43.35;;;25.75;;
42414;SDS011;28058;46.344;17.786;2023-02-28T00:25:10;46.53;;;27.58;;
42414;SDS011;28058;46.344;17.786;2023-02-28T00:27:39;50.47;;;25.23;;
42414;SDS011;28058;46.344;17.786;2023-02-28T00:30:08;51.25;;;28.15;;
42414;SDS011;28058;46.344;17.786;2023-02-28T00:32:40;48.75;;;27.77;;
42414;SDS011;28058;46.344;17.786;2023-02-28T00:35:07;49.38;;;28.05;;
42414;SDS011;28058;46.344;17.786;2023-02-28T00:37:35;53.08;;;27.67;;
42414;SDS011;28058;46.344;17.786;2023-02-28T00:40:02;48.78;;;27.38;;
42414;SDS011;28058;46.344;17.786;2023-02-28T00:42:37;54.83;;;29.85;;
42414;SDS011;28058;46.344;17.786;2023-02-28T00:45:04;48.65;;;28.33;;
42414;SDS011;28058;46.344;17.786;2023-02-28T00:47:32;51.63;;;28.42;;
42414;SDS011;28058;46.344;17.786;2023-02-28T00:49:59;50.42;;;28.35;;
42414;SDS011;28058;46.344;17.786;2023-02-28T00:52:26;57.08;;;29.67;;
42414;SDS011;28058;46.344;17.786;2023-02-28T00:54:53;52.90;;;28.15;;
42414;SDS011;28058;46.344;17.786;2023-02-28T00:57:20;53.10;;;28.33;;
42414;SDS011;28058;46.344;17.786;2023-02-28T00:59:47;54.45;;;29.55;;
42414;SDS011;28058;46.344;17.786;2023-02-28T01:02:14;50.35;;;26.92;;
42414;SDS011;28058;46.344;17.786;2023-02-28T01:04:41;48.17;;;27.05;;
42414;SDS011;28058;46.344;17.786;2023-02-28T01:07:08;51.83;;;29.73;;
42414;SDS011;28058;46.344;17.786;2023-02-28T01:09:35;50.97;;;28.10;;
42414;SDS011;28058;46.344;17.786;2023-02-28T01:12:02;46.20;;;27.13;;
42414;SDS011;28058;46.344;17.786;2023-02-28T01:14:29;50.03;;;29.05;;
42414;SDS011;28058;46.344;17.786;2023-02-28T01:16:55;46.97;;;27.05;;
42414;SDS011;28058;46.344;17.786;2023-02-28T01:19:22;43.55;;;24.83;;
42414;SDS011;28058;46.344;17.786;2023-02-28T01:21:50;49.70;;;25.10;;
42414;SDS011;28058;46.344;17.786;2023-02-28T01:24:16;42.72;;;23.85;;
42414;SDS011;28058;46.344;17.786;2023-02-28T01:26:43;47.88;;;25.75;;
42414;SDS011;28058;46.344;17.786;2023-02-28T01:29:10;44.15;;;26.05;;
42414;SDS011;28058;46.344;17.786;2023-02-28T01:31:37;45.78;;;23.73;;
42414;SDS011;28058;46.344;17.786;2023-02-28T01:34:04;45.33;;;24.58;;
42414;SDS011;28058;46.344;17.786;2023-02-28T01:36:33;48.03;;;26.45;;
42414;SDS011;28058;46.344;17.786;2023-02-28T01:39:00;43.13;;;25.95;;
42414;SDS011;28058;46.344;17.786;2023-02-28T01:41:28;44.85;;;25.05;;
42414;SDS011;28058;46.344;17.786;2023-02-28T01:44:02;35.83;;;18.30;;
42414;SDS011;28058;46.344;17.786;2023-02-28T01:46:51;46.58;;;26.45;;
42414;SDS011;28058;46.344;17.786;2023-02-28T01:49:18;45.42;;;25.48;;
42414;SDS011;28058;46.344;17.786;2023-02-28T01:51:49;42.55;;;23.60;;
42414;SDS011;28058;46.344;17.786;2023-02-28T01:54:26;43.80;;;23.75;;
42414;SDS011;28058;46.344;17.786;2023-02-28T01:56:56;45.42;;;25.50;;
42414;SDS011;28058;46.344;17.786;2023-02-28T01:59:33;43.53;;;23.63;;
42414;SDS011;28058;46.344;17.786;2023-02-28T02:02:15;38.67;;;22.92;;
42414;SDS011;28058;46.344;17.786;2023-02-28T02:04:46;40.97;;;24.50;;
42414;SDS011;28058;46.344;17.786;2023-02-28T02:07:42;42.03;;;23.20;;
42414;SDS011;28058;46.344;17.786;2023-02-28T02:10:16;45.72;;;24.17;;
42414;SDS011;28058;46.344;17.786;2023-02-28T02:18:25;39.10;;;22.48;;
42414;SDS011;28058;46.344;17.786;2023-02-28T02:32:18;42.22;;;22.52;;
42414;SDS011;28058;46.344;17.786;2023-02-28T02:43:56;29.40;;;17.98;;
42414;SDS011;28058;46.344;17.786;2023-02-28T02:46:42;30.23;;;17.02;;
42414;SDS011;28058;46.344;17.786;2023-02-28T02:49:15;29.65;;;17.77;;
42414;SDS011;28058;46.344;17.786;2023-02-28T02:51:47;27.02;;;15.30;;
42414;SDS011;28058;46.344;17.786;2023-02-28T02:54:17;29.05;;;15.10;;
42414;SDS011;28058;46.344;17.786;2023-02-28T02:56:49;23.08;;;13.77;;
42414;SDS011;28058;46.344;17.786;2023-02-28T02:59:18;26.58;;;14.95;;
42414;SDS011;28058;46.344;17.786;2023-02-28T03:02:21;25.65;;;15.18;;
42414;SDS011;28058;46.344;17.786;2023-02-28T03:04:48;22.95;;;14.00;;
42414;SDS011;28058;46.344;17.786;2023-02-28T03:07:19;28.08;;;15.40;;
42414;SDS011;28058;46.344;17.786;2023-02-28T03:09:50;25.63;;;15.30;;
42414;SDS011;28058;46.344;17.786;2023-02-28T03:12:21;25.20;;;14.73;;
42414;SDS011;28058;46.344;17.786;2023-02-28T03:23:17;21.20;;;13.20;;
42414;SDS011;28058;46.344;17.786;2023-02-28T03:26:04;23.98;;;13.25;;
42414;SDS011;28058;46.344;17.786;2023-02-28T03:29:13;25.15;;;15.38;;
42414;SDS011;28058;46.344;17.786;2023-02-28T03:31:53;22.63;;;13.43;;
42414;SDS011;28058;46.344;17.786;2023-02-28T03:34:34;24.73;;;13.27;;
42414;SDS011;28058;46.344;17.786;2023-02-28T03:37:07;22.92;;;13.55;;
42414;SDS011;28058;46.344;17.786;2023-02-28T03:42:15;22.40;;;12.48;;
42414;SDS011;28058;46.344;17.786;2023-02-28T03:47:31;21.50;;;12.90;;
42414;SDS011;28058;46.344;17.786;2023-02-28T03:50:18;21.45;;;12.27;;
42414;SDS011;28058;46.344;17.786;2023-02-28T03:53:00;22.77;;;13.45;;
42414;SDS011;28058;46.344;17.786;2023-02-28T03:55:38;22.98;;;13.23;;
42414;SDS011;28058;46.344;17.786;2023-02-28T04:01:07;23.15;;;13.18;;
42414;SDS011;28058;46.344;17.786;2023-02-28T04:03:56;20.40;;;12.65;;
42414;SDS011;28058;46.344;17.786;2023-02-28T04:06:23;24.05;;;13.75;;
42414;SDS011;28058;46.344;17.786;2023-02-28T04:08:50;23.73;;;13.65;;
42414;SDS011;28058;46.344;17.786;2023-02-28T04:13:49;21.45;;;13.48;;
42414;SDS011;28058;46.344;17.786;2023-02-28T04:16:17;22.67;;;14.00;;
42414;SDS011;28058;46.344;17.786;2023-02-28T04:18:59;24.45;;;12.68;;
42414;SDS011;28058;46.344;17.786;2023-02-28T04:21:29;22.27;;;12.98;;
42414;SDS011;28058;46.344;17.786;2023-02-28T04:23:57;27.85;;;13.75;;
42414;SDS011;28058;46.344;17.786;2023-02-28T04:26:37;20.52;;;12.65;;
42414;SDS011;28058;46.344;17.786;2023-02-28T04:29:04;31.08;;;13.95;;
42414;SDS011;28058;46.344;17.786;2023-02-28T04:31:32;24.25;;;13.70;;
42414;SDS011;28058;46.344;17.786;2023-02-28T04:34:00;21.85;;;13.35;;
42414;SDS011;28058;46.344;17.786;2023-02-28T04:36:27;19.48;;;11.63;;
42414;SDS011;28058;46.344;17.786;2023-02-28T04:38:54;24.02;;;12.80;;
42414;SDS011;28058;46.344;17.786;2023-02-28T04:41:22;21.50;;;12.88;;
42414;SDS011;28058;46.344;17.786;2023-02-28T04:43:49;21.42;;;12.90;;
42414;SDS011;28058;46.344;17.786;2023-02-28T04:46:18;20.60;;;13.18;;
42414;SDS011;28058;46.344;17.786;2023-02-28T04:48:45;20.27;;;13.07;;
42414;SDS011;28058;46.344;17.786;2023-02-28T04:51:13;24.40;;;12.18;;
42414;SDS011;28058;46.344;17.786;2023-02-28T04:53:41;24.48;;;13.88;;
42414;SDS011;28058;46.344;17.786;2023-02-28T04:56:10;21.70;;;13.82;;
42414;SDS011;28058;46.344;17.786;2023-02-28T04:58:39;21.63;;;13.60;;
42414;SDS011;28058;46.344;17.786;2023-02-28T05:01:07;26.23;;;13.65;;
42414;SDS011;28058;46.344;17.786;2023-02-28T05:03:43;25.05;;;14.30;;
42414;SDS011;28058;46.344;17.786;2023-02-28T05:06:10;25.88;;;14.77;;
42414;SDS011;28058;46.344;17.786;2023-02-28T05:08:38;37.67;;;20.17;;
42414;SDS011;28058;46.344;17.786;2023-02-28T05:11:07;36.47;;;19.90;;
42414;SDS011;28058;46.344;17.786;2023-02-28T05:13:40;27.13;;;14.57;;
42414;SDS011;28058;46.344;17.786;2023-02-28T05:16:06;24.92;;;14.02;;
42414;SDS011;28058;46.344;17.786;2023-02-28T05:18:33;24.90;;;14.65;;
42414;SDS011;28058;46.344;17.786;2023-02-28T05:21:00;28.52;;;16.33;;
42414;SDS011;28058;46.344;17.786;2023-02-28T05:23:30;30.42;;;16.17;;
42414;SDS011;28058;46.344;17.786;2023-02-28T05:25:56;27.63;;;15.32;;
42414;SDS011;28058;46.344;17.786;2023-02-28T05:28:23;28.15;;;17.48;;
42414;SDS011;28058;46.344;17.786;2023-02-28T05:30:50;26.23;;;17.13;;
42414;SDS011;28058;46.344;17.786;2023-02-28T05:33:17;25.83;;;15.27;;
42414;SDS011;28058;46.344;17.786;2023-02-28T05:35:44;32.38;;;16.95;;
42414;SDS011;28058;46.344;17.786;2023-02-28T05:38:11;32.97;;;17.40;;
42414;SDS011;28058;46.344;17.786;2023-02-28T05:40:38;27.25;;;16.20;;
42414;SDS011;28058;46.344;17.786;2023-02-28T05:43:07;31.92;;;17.02;;
42414;SDS011;28058;46.344;17.786;2023-02-28T05:45:37;30.15;;;16.30;;
42414;SDS011;28058;46.344;17.786;2023-02-28T05:48:04;25.38;;;14.95;;
42414;SDS011;28058;46.344;17.786;2023-02-28T05:50:31;28.02;;;15.45;;
42414;SDS011;28058;46.344;17.786;2023-02-28T05:52:58;29.00;;;15.32;;
42414;SDS011;28058;46.344;17.786;2023-02-28T05:55:25;21.42;;;13.00;;
42414;SDS011;28058;46.344;17.786;2023-02-28T05:57:52;22.50;;;13.57;;
42414;SDS011;28058;46.344;17.786;2023-02-28T06:00:18;23.35;;;14.00;;
42414;SDS011;28058;46.344;17.786;2023-02-28T06:02:45;25.75;;;12.98;;
42414;SDS011;28058;46.344;17.786;2023-02-28T06:05:14;24.83;;;13.48;;
42414;SDS011;28058;46.344;17.786;2023-02-28T06:07:42;24.80;;;13.75;;
42414;SDS011;28058;46.344;17.786;2023-02-28T06:10:10;22.13;;;14.18;;
42414;SDS011;28058;46.344;17.786;2023-02-28T06:12:38;23.95;;;14.20;;
42414;SDS011;28058;46.344;17.786;2023-02-28T06:15:05;24.98;;;14.57;;
42414;SDS011;28058;46.344;17.786;2023-02-28T06:17:32;26.38;;;15.75;;
42414;SDS011;28058;46.344;17.786;2023-02-28T06:19:59;47.25;;;33.08;;
42414;SDS011;28058;46.344;17.786;2023-02-28T06:22:25;47.45;;;33.88;;
42414;SDS011;28058;46.344;17.786;2023-02-28T06:24:52;40.60;;;27.38;;
42414;SDS011;28058;46.344;17.786;2023-02-28T06:27:20;46.90;;;29.30;;
42414;SDS011;28058;46.344;17.786;2023-02-28T06:29:48;23.65;;;14.20;;
42414;SDS011;28058;46.344;17.786;2023-02-28T06:32:15;34.38;;;13.93;;
42414;SDS011;28058;46.344;17.786;2023-02-28T06:34:42;28.33;;;15.18;;
42414;SDS011;28058;46.344;17.786;2023-02-28T06:37:08;31.02;;;14.52;;
42414;SDS011;28058;46.344;17.786;2023-02-28T06:39:35;58.40;;;19.92;;
42414;SDS011;28058;46.344;17.786;2023-02-28T06:42:02;27.00;;;15.07;;
42414;SDS011;28058;46.344;17.786;2023-02-28T06:44:30;26.73;;;15.75;;
42414;SDS011;28058;46.344;17.786;2023-02-28T06:49:33;20.63;;;12.85;;
42414;SDS011;28058;46.344;17.786;2023-02-28T06:52:01;26.23;;;14.23;;
42414;SDS011;28058;46.344;17.786;2023-02-28T06:54:29;24.20;;;14.02;;
42414;SDS011;28058;46.344;17.786;2023-02-28T06:56:57;24.23;;;14.07;;
42414;SDS011;28058;46.344;17.786;2023-02-28T06:59:24;23.35;;;12.30;;
42414;SDS011;28058;46.344;17.786;2023-02-28T07:01:51;19.20;;;13.13;;
42414;SDS011;28058;46.344;17.786;2023-02-28T07:04:18;25.40;;;14.05;;
42414;SDS011;28058;46.344;17.786;2023-02-28T07:06:45;23.13;;;14.23;;
42414;SDS011;28058;46.344;17.786;2023-02-28T07:09:12;37.65;;;22.50;;
42414;SDS011;28058;46.344;17.786;2023-02-28T07:11:40;25.10;;;15.82;;
42414;SDS011;28058;46.344;17.786;2023-02-28T07:14:09;20.70;;;12.40;;
42414;SDS011;28058;46.344;17.786;2023-02-28T07:16:35;21.80;;;12.98;;
42414;SDS011;28058;46.344;17.786;2023-02-28T07:19:02;18.08;;;12.40;;
42414;SDS011;28058;46.344;17.786;2023-02-28T07:21:29;19.33;;;12.60;;
42414;SDS011;28058;46.344;17.786;2023-02-28T07:23:57;21.55;;;12.10;;
42414;SDS011;28058;46.344;17.786;2023-02-28T07:26:24;21.38;;;12.70;;
42414;SDS011;28058;46.344;17.786;2023-02-28T07:28:50;24.35;;;13.55;;
42414;SDS011;28058;46.344;17.786;2023-02-28T07:31:17;21.25;;;12.60;;
42414;SDS011;28058;46.344;17.786;2023-02-28T07:33:45;19.00;;;10.65;;
42414;SDS011;28058;46.344;17.786;2023-02-28T07:36:13;17.15;;;10.52;;
42414;SDS011;28058;46.344;17.786;2023-02-28T07:38:42;18.15;;;11.32;;
42414;SDS011;28058;46.344;17.786;2023-02-28T07:43:41;21.52;;;13.18;;
42414;SDS011;28058;46.344;17.786;2023-02-28T07:46:09;21.42;;;12.55;;
42414;SDS011;28058;46.344;17.786;2023-02-28T07:48:38;20.48;;;11.18;;
42414;SDS011;28058;46.344;17.786;2023-02-28T07:51:05;23.50;;;12.65;;
42414;SDS011;28058;46.344;17.786;2023-02-28T07:53:32;24.83;;;12.85;;
42414;SDS011;28058;46.344;17.786;2023-02-28T07:55:59;26.50;;;14.45;;
42414;SDS011;28058;46.344;17.786;2023-02-28T07:58:28;17.73;;;10.75;;
42414;SDS011;28058;46.344;17.786;2023-02-28T08:00:56;13.65;;;9.18;;
42414;SDS011;28058;46.344;17.786;2023-02-28T08:03:24;12.65;;;8.95;;
42414;SDS011;28058;46.344;17.786;2023-02-28T08:05:51;15.20;;;10.15;;
42414;SDS011;28058;46.344;17.786;2023-02-28T08:08:19;17.88;;;9.77;;
42414;SDS011;28058;46.344;17.786;2023-02-28T08:10:45;16.33;;;11.05;;
42414;SDS011;28058;46.344;17.786;2023-02-28T08:13:12;16.52;;;9.40;;
42414;SDS011;28058;46.344;17.786;2023-02-28T08:15:40;15.38;;;9.52;;
42414;SDS011;28058;46.344;17.786;2023-02-28T08:18:09;15.50;;;8.30;;
42414;SDS011;28058;46.344;17.786;2023-02-28T08:20:36;12.95;;;8.80;;
42414;SDS011;28058;46.344;17.786;2023-02-28T08:23:03;14.77;;;9.30;;
42414;SDS011;28058;46.344;17.786;2023-02-28T08:25:29;12.23;;;8.65;;
42414;SDS011;28058;46.344;17.786;2023-02-28T08:27:56;13.85;;;8.73;;
42414;SDS011;28058;46.344;17.786;2023-02-28T08:30:23;20.17;;;10.73;;
42414;SDS011;28058;46.344;17.786;2023-02-28T08:32:50;14.07;;;9.20;;
42414;SDS011;28058;46.344;17.786;2023-02-28T08:35:17;16.65;;;9.18;;
42414;SDS011;28058;46.344;17.786;2023-02-28T08:37:44;15.02;;;9.23;;
42414;SDS011;28058;46.344;17.786;2023-02-28T08:40:11;14.50;;;8.70;;
42414;SDS011;28058;46.344;17.786;2023-02-28T08:42:44;12.00;;;8.27;;
42414;SDS011;28058;46.344;17.786;2023-02-28T08:45:12;14.85;;;9.02;;
42414;SDS011;28058;46.344;17.786;2023-02-28T08:47:39;14.48;;;9.77;;
42414;SDS011;28058;46.344;17.786;2023-02-28T08:50:08;15.95;;;8.85;;
42414;SDS011;28058;46.344;17.786;2023-02-28T08:52:35;10.23;;;7.07;;
42414;SDS011;28058;46.344;17.786;2023-02-28T08:55:02;11.82;;;7.30;;
42414;SDS011;28058;46.344;17.786;2023-02-28T08:57:29;10.60;;;8.13;;
42414;SDS011;28058;46.344;17.786;2023-02-28T08:59:56;16.02;;;7.63;;
42414;SDS011;28058;46.344;17.786;2023-02-28T09:02:23;11.90;;;7.70;;
42414;SDS011;28058;46.344;17.786;2023-02-28T09:04:50;13.73;;;7.95;;
42414;SDS011;28058;46.344;17.786;2023-02-28T09:07:17;12.32;;;8.30;;
42414;SDS011;28058;46.344;17.786;2023-02-28T09:09:44;11.85;;;8.05;;
42414;SDS011;28058;46.344;17.786;2023-02-28T09:12:24;11.20;;;7.32;;
42414;SDS011;28058;46.344;17.786;2023-02-28T09:14:52;12.88;;;7.63;;
42414;SDS011;28058;46.344;17.786;2023-02-28T09:17:19;13.68;;;8.93;;
42414;SDS011;28058;46.344;17.786;2023-02-28T09:19:47;11.85;;;8.48;;
42414;SDS011;28058;46.344;17.786;2023-02-28T09:22:15;10.65;;;7.38;;
42414;SDS011;28058;46.344;17.786;2023-02-28T09:24:42;11.93;;;8.10;;
42414;SDS011;28058;46.344;17.786;2023-02-28T09:27:10;14.63;;;9.05;;
42414;SDS011;28058;46.344;17.786;2023-02-28T09:29:37;13.73;;;8.85;;
42414;SDS011;28058;46.344;17.786;2023-02-28T09:32:04;11.02;;;7.88;;
42414;SDS011;28058;46.344;17.786;2023-02-28T09:34:32;12.75;;;7.72;;
42414;SDS011;28058;46.344;17.786;2023-02-28T09:36:59;11.45;;;7.45;;
42414;SDS011;28058;46.344;17.786;2023-02-28T09:39:26;13.07;;;8.65;;
42414;SDS011;28058;46.344;17.786;2023-02-28T09:41:54;11.10;;;7.13;;
42414;SDS011;28058;46.344;17.786;2023-02-28T09:44:24;12.50;;;7.50;;
42414;SDS011;28058;46.344;17.786;2023-02-28T09:47:00;10.73;;;7.05;;
42414;SDS011;28058;46.344;17.786;2023-02-28T09:49:37;14.20;;;7.95;;
42414;SDS011;28058;46.344;17.786;2023-02-28T09:52:09;10.80;;;7.38;;
42414;SDS011;28058;46.344;17.786;2023-02-28T09:54:40;13.27;;;8.10;;
42414;SDS011;28058;46.344;17.786;2023-02-28T10:00:03;17.77;;;10.73;;
42414;SDS011;28058;46.344;17.786;2023-02-28T10:05:13;12.15;;;7.70;;
42414;SDS011;28058;46.344;17.786;2023-02-28T10:10:42;12.30;;;8.77;;
42414;SDS011;28058;46.344;17.786;2023-02-28T10:15:44;12.10;;;8.13;;
42414;SDS011;28058;46.344;17.786;2023-02-28T10:18:16;13.23;;;9.30;;
42414;SDS011;28058;46.344;17.786;2023-02-28T10:20:51;15.32;;;9.50;;
42414;SDS011;28058;46.344;17.786;2023-02-28T10:23:21;19.27;;;12.65;;
42414;SDS011;28058;46.344;17.786;2023-02-28T10:26:15;15.65;;;8.55;;
42414;SDS011;28058;46.344;17.786;2023-02-28T10:28:44;13.02;;;9.20;;
42414;SDS011;28058;46.344;17.786;2023-02-28T10:31:13;11.98;;;7.70;;
42414;SDS011;28058;46.344;17.786;2023-02-28T10:33:43;14.75;;;8.38;;
42414;SDS011;28058;46.344;17.786;2023-02-28T10:36:15;13.85;;;7.65;;
42414;SDS011;28058;46.344;17.786;2023-02-28T10:38:44;11.45;;;7.47;;
42414;SDS011;28058;46.344;17.786;2023-02-28T10:41:14;15.57;;;8.23;;
42414;SDS011;28058;46.344;17.786;2023-02-28T10:44:12;16.30;;;8.85;;
42414;SDS011;28058;46.344;17.786;2023-02-28T10:46:41;17.02;;;9.98;;
42414;SDS011;28058;46.344;17.786;2023-02-28T10:49:13;14.75;;;8.68;;
42414;SDS011;28058;46.344;17.786;2023-02-28T10:51:49;29.50;;;9.55;;
42414;SDS011;28058;46.344;17.786;2023-02-28T10:54:35;36.17;;;10.85;;
42414;SDS011;28058;46.344;17.786;2023-02-28T10:57:08;26.00;;;7.93;;
42414;SDS011;28058;46.344;17.786;2023-02-28T10:59:41;14.27;;;9.10;;
42414;SDS011;28058;46.344;17.786;2023-02-28T11:02:51;15.88;;;9.30;;
42414;SDS011;28058;46.344;17.786;2023-02-28T11:08:03;25.92;;;13.77;;
42414;SDS011;28058;46.344;17.786;2023-02-28T11:10:32;21.33;;;11.90;;
42414;SDS011;28058;46.344;17.786;2023-02-28T11:13:01;19.65;;;10.52;;
42414;SDS011;28058;46.344;17.786;2023-02-28T11:15:30;15.98;;;9.52;;
42414;SDS011;28058;46.344;17.786;2023-02-28T11:18:01;17.08;;;9.23;;
42414;SDS011;28058;46.344;17.786;2023-02-28T11:20:33;20.38;;;10.70;;
42414;SDS011;28058;46.344;17.786;2023-02-28T11:23:01;23.70;;;13.02;;
42414;SDS011;28058;46.344;17.786;2023-02-28T11:25:36;15.52;;;8.98;;
42414;SDS011;28058;46.344;17.786;2023-02-28T11:28:06;19.88;;;12.75;;
42414;SDS011;28058;46.344;17.786;2023-02-28T11:33:31;15.15;;;8.30;;
42414;SDS011;28058;46.344;17.786;2023-02-28T11:36:10;15.93;;;9.85;;
42414;SDS011;28058;46.344;17.786;2023-02-28T11:39:03;14.13;;;8.57;;
42414;SDS011;28058;46.344;17.786;2023-02-28T11:47:22;13.70;;;7.88;;
42414;SDS011;28058;46.344;17.786;2023-02-28T12:00:44;11.32;;;7.40;;
42414;SDS011;28058;46.344;17.786;2023-02-28T12:25:43;13.25;;;8.65;;
42414;SDS011;28058;46.344;17.786;2023-02-28T12:30:51;13.05;;;8.85;;
42414;SDS011;28058;46.344;17.786;2023-02-28T12:33:37;16.30;;;10.98;;
42414;SDS011;28058;46.344;17.786;2023-02-28T12:36:10;17.95;;;10.88;;
42414;SDS011;28058;46.344;17.786;2023-02-28T12:38:45;14.80;;;10.38;;
42414;SDS011;28058;46.344;17.786;2023-02-28T12:41:19;22.95;;;12.88;;
42414;SDS011;28058;46.344;17.786;2023-02-28T12:44:15;27.25;;;14.70;;
42414;SDS011;28058;46.344;17.786;2023-02-28T12:46:48;25.70;;;15.23;;
42414;SDS011;28058;46.344;17.786;2023-02-28T12:49:31;24.10;;;14.73;;
42414;SDS011;28058;46.344;17.786;2023-02-28T12:52:03;20.83;;;12.82;;
42414;SDS011;28058;46.344;17.786;2023-02-28T13:00:10;23.85;;;15.25;;
42414;SDS011;28058;46.344;17.786;2023-02-28T13:10:39;17.58;;;12.35;;
42414;SDS011;28058;46.344;17.786;2023-02-28T13:13:13;17.55;;;10.85;;
42414;SDS011;28058;46.344;17.786;2023-02-28T13:18:37;14.52;;;10.13;;
42414;SDS011;28058;46.344;17.786;2023-02-28T13:21:09;18.48;;;11.10;;
42414;SDS011;28058;46.344;17.786;2023-02-28T13:28:59;19.20;;;11.48;;
42414;SDS011;28058;46.344;17.786;2023-02-28T13:31:28;14.93;;;9.88;;
42414;SDS011;28058;46.344;17.786;2023-02-28T13:36:29;18.48;;;10.35;;
42414;SDS011;28058;46.344;17.786;2023-02-28T13:41:49;15.88;;;11.50;;
42414;SDS011;28058;46.344;17.786;2023-02-28T13:44:20;24.70;;;15.68;;
42414;SDS011;28058;46.344;17.786;2023-02-28T13:57:17;30.73;;;15.10;;
42414;SDS011;28058;46.344;17.786;2023-02-28T14:05:43;15.57;;;10.20;;
42414;SDS011;28058;46.344;17.786;2023-02-28T14:10:48;17.92;;;11.95;;
42414;SDS011;28058;46.344;17.786;2023-02-28T14:13:37;30.33;;;17.88;;
42414;SDS011;28058;46.344;17.786;2023-02-28T14:16:15;23.65;;;13.98;;
42414;SDS011;28058;46.344;17.786;2023-02-28T14:18:50;35.33;;;16.50;;
42414;SDS011;28058;46.344;17.786;2023-02-28T14:21:23;22.15;;;13.18;;
42414;SDS011;28058;46.344;17.786;2023-02-28T14:24:15;25.55;;;14.13;;
42414;SDS011;28058;46.344;17.786;2023-02-28T14:26:54;22.33;;;13.25;;
42414;SDS011;28058;46.344;17.786;2023-02-28T14:32:33;21.13;;;13.50;;
42414;SDS011;28058;46.344;17.786;2023-02-28T14:38:11;22.38;;;14.85;;
42414;SDS011;28058;46.344;17.786;2023-02-28T14:40:44;24.95;;;15.18;;
42414;SDS011;28058;46.344;17.786;2023-02-28T14:43:23;42.95;;;27.17;;
42414;SDS011;28058;46.344;17.786;2023-02-28T14:46:01;19.80;;;14.40;;
42414;SDS011;28058;46.344;17.786;2023-02-28T14:48:30;23.50;;;18.63;;
42414;SDS011;28058;46.344;17.786;2023-02-28T14:50:58;15.80;;;12.30;;
42414;SDS011;28058;46.344;17.786;2023-02-28T14:53:30;16.95;;;12.30;;
42414;SDS011;28058;46.344;17.786;2023-02-28T14:56:02;26.67;;;16.60;;
42414;SDS011;28058;46.344;17.786;2023-02-28T14:58:31;17.33;;;12.65;;
42414;SDS011;28058;46.344;17.786;2023-02-28T15:01:00;18.30;;;13.20;;
42414;SDS011;28058;46.344;17.786;2023-02-28T15:06:02;14.85;;;11.25;;
42414;SDS011;28058;46.344;17.786;2023-02-28T15:08:30;17.80;;;12.65;;
42414;SDS011;28058;46.344;17.786;2023-02-28T15:11:02;18.48;;;12.23;;
42414;SDS011;28058;46.344;17.786;2023-02-28T15:13:52;18.08;;;13.40;;
42414;SDS011;28058;46.344;17.786;2023-02-28T15:16:20;17.63;;;12.02;;
42414;SDS011;28058;46.344;17.786;2023-02-28T15:18:57;25.48;;;15.70;;
42414;SDS011;28058;46.344;17.786;2023-02-28T15:21:41;32.30;;;16.42;;
42414;SDS011;28058;46.344;17.786;2023-02-28T15:26:54;23.67;;;16.20;;
42414;SDS011;28058;46.344;17.786;2023-02-28T15:29:25;21.80;;;14.63;;
42414;SDS011;28058;46.344;17.786;2023-02-28T15:34:34;24.42;;;16.58;;
42414;SDS011;28058;46.344;17.786;2023-02-28T15:43:12;20.50;;;14.18;;
42414;SDS011;28058;46.344;17.786;2023-02-28T15:50:47;19.65;;;13.20;;
42414;SDS011;28058;46.344;17.786;2023-02-28T15:53:24;21.25;;;13.27;;
42414;SDS011;28058;46.344;17.786;2023-02-28T15:55:56;23.48;;;14.65;;
42414;SDS011;28058;46.344;17.786;2023-02-28T15:58:26;23.85;;;14.15;;
42414;SDS011;28058;46.344;17.786;2023-02-28T16:01:04;19.45;;;13.40;;
42414;SDS011;28058;46.344;17.786;2023-02-28T16:03:50;20.35;;;13.15;;
42414;SDS011;28058;46.344;17.786;2023-02-28T16:06:30;21.08;;;12.80;;
42414;SDS011;28058;46.344;17.786;2023-02-28T16:09:18;16.90;;;11.73;;
42414;SDS011;28058;46.344;17.786;2023-02-28T16:11:46;16.00;;;11.57;;
42414;SDS011;28058;46.344;17.786;2023-02-28T16:14:21;21.33;;;13.30;;
42414;SDS011;28058;46.344;17.786;2023-02-28T16:16:54;22.15;;;13.55;;
42414;SDS011;28058;46.344;17.786;2023-02-28T16:19:22;21.27;;;13.57;;
42414;SDS011;28058;46.344;17.786;2023-02-28T16:21:50;18.13;;;11.90;;
42414;SDS011;28058;46.344;17.786;2023-02-28T16:24:17;21.92;;;13.32;;
42414;SDS011;28058;46.344;17.786;2023-02-28T16:26:48;19.08;;;13.35;;
42414;SDS011;28058;46.344;17.786;2023-02-28T16:29:23;22.02;;;13.35;;
42414;SDS011;28058;46.344;17.786;2023-02-28T16:31:54;19.83;;;13.98;;
42414;SDS011;28058;46.344;17.786;2023-02-28T16:34:21;20.83;;;13.70;;
42414;SDS011;28058;46.344;17.786;2023-02-28T16:36:49;22.52;;;14.35;;
42414;SDS011;28058;46.344;17.786;2023-02-28T16:39:16;29.73;;;14.52;;
42414;SDS011;28058;46.344;17.786;2023-02-28T16:41:44;19.95;;;14.38;;
42414;SDS011;28058;46.344;17.786;2023-02-28T16:44:13;24.38;;;16.48;;
42414;SDS011;28058;46.344;17.786;2023-02-28T16:46:47;30.58;;;17.05;;
42414;SDS011;28058;46.344;17.786;2023-02-28T16:49:14;26.20;;;16.45;;
42414;SDS011;28058;46.344;17.786;2023-02-28T16:51:42;25.67;;;17.23;;
42414;SDS011;28058;46.344;17.786;2023-02-28T16:54:08;30.45;;;16.90;;
42414;SDS011;28058;46.344;17.786;2023-02-28T16:56:36;24.20;;;18.17;;
42414;SDS011;28058;46.344;17.786;2023-02-28T16:59:08;26.60;;;17.02;;
42414;SDS011;28058;46.344;17.786;2023-02-28T17:01:39;30.40;;;17.77;;
42414;SDS011;28058;46.344;17.786;2023-02-28T17:04:08;29.23;;;19.02;;
42414;SDS011;28058;46.344;17.786;2023-02-28T17:06:37;31.63;;;21.05;;
42414;SDS011;28058;46.344;17.786;2023-02-28T17:09:08;35.28;;;22.08;;
42414;SDS011;28058;46.344;17.786;2023-02-28T17:11:49;32.20;;;20.40;;
42414;SDS011;28058;46.344;17.786;2023-02-28T17:14:16;33.50;;;21.55;;
42414;SDS011;28058;46.344;17.786;2023-02-28T17:16:44;32.05;;;19.70;;
42414;SDS011;28058;46.344;17.786;2023-02-28T17:19:13;31.33;;;19.83;;
42414;SDS011;28058;46.344;17.786;2023-02-28T17:21:41;25.75;;;18.08;;
42414;SDS011;28058;46.344;17.786;2023-02-28T17:24:10;32.45;;;19.98;;
42414;SDS011;28058;46.344;17.786;2023-02-28T17:26:55;37.83;;;23.33;;
42414;SDS011;28058;46.344;17.786;2023-02-28T17:29:22;30.42;;;19.42;;
42414;SDS011;28058;46.344;17.786;2023-02-28T17:31:50;29.20;;;18.98;;